createdAt,value
2022-09-26T00:01:38.463Z,83.11
2022-09-26T00:04:16.157Z,83.08
2022-09-26T00:06:44.231Z,82.89
2022-09-26T00:09:13.626Z,82.91
2022-09-26T00:11:42.340Z,82.95
2022-09-26T00:14:17.709Z,83.15
2022-09-26T00:16:45.912Z,82.98
2022-09-26T00:19:14.358Z,82.87
2022-09-26T00:21:42.790Z,82.81
2022-09-26T00:24:10.758Z,82.80
2022-09-26T00:26:39.239Z,82.92
2022-09-26T00:29:11.473Z,82.69
2022-09-26T00:31:44.386Z,82.56
2022-09-26T00:34:14.320Z,82.65
2022-09-26T00:36:42.579Z,82.71
2022-09-26T00:39:13.691Z,82.62
2022-09-26T00:41:42.313Z,82.36
2022-09-26T00:44:46.423Z,82.37
2022-09-26T00:47:26.289Z,82.26
2022-09-26T00:50:18.988Z,82.41
2022-09-26T00:53:02.036Z,82.00
2022-09-26T00:55:35.320Z,81.95
2022-09-26T00:58:18.657Z,81.82
2022-09-26T01:00:49.327Z,81.96
2022-09-26T01:03:20.025Z,81.89
2022-09-26T01:05:48.728Z,81.94
2022-09-26T01:08:22.092Z,82.33
2022-09-26T01:10:50.648Z,82.74
2022-09-26T01:13:18.587Z,83.04
2022-09-26T01:15:46.463Z,83.25
2022-09-26T01:18:14.588Z,83.53
2022-09-26T01:20:59.040Z,83.37
2022-09-26T01:23:56.294Z,83.32
2022-09-26T01:27:04.305Z,83.53
2022-09-26T01:29:50.119Z,83.19
2022-09-26T01:32:51.343Z,83.29
2022-09-26T01:35:28.215Z,83.37
2022-09-26T01:38:01.814Z,83.40
2022-09-26T01:40:57.426Z,83.45
2022-09-26T01:43:37.339Z,83.70
2022-09-26T01:46:33.266Z,83.71
2022-09-26T01:49:40.159Z,83.58
2022-09-26T01:52:16.500Z,83.38
2022-09-26T01:54:54.956Z,83.50
2022-09-26T01:57:40.410Z,83.49
2022-09-26T02:00:12.738Z,83.24
2022-09-26T02:02:47.772Z,83.24
2022-09-26T02:05:32.772Z,83.07
2022-09-26T02:08:24.669Z,83.13
2022-09-26T02:11:19.840Z,83.15
2022-09-26T02:14:04.093Z,83.46
2022-09-26T02:16:40.200Z,83.36
2022-09-26T02:19:31.663Z,83.19
2022-09-26T02:22:01.530Z,83.41
2022-09-26T02:24:29.763Z,83.52
2022-09-26T02:26:58.135Z,83.68
2022-09-26T02:29:26.513Z,83.78
2022-09-26T02:31:59.039Z,83.72
2022-09-26T02:34:27.194Z,83.77
2022-09-26T02:36:57.669Z,83.75
2022-09-26T02:39:28.118Z,83.58
2022-09-26T02:42:21.463Z,83.26
2022-09-26T02:45:17.042Z,83.26
2022-09-26T02:48:03.504Z,83.40
2022-09-26T02:50:47.999Z,83.43
2022-09-26T02:53:41.327Z,83.53
2022-09-26T02:56:14.380Z,83.31
2022-09-26T02:59:02.649Z,83.47
2022-09-26T03:01:48.503Z,83.42
2022-09-26T03:04:51.067Z,83.60
2022-09-26T03:07:51.235Z,83.82
2022-09-26T03:10:20.716Z,83.78
2022-09-26T03:12:51.272Z,83.91
2022-09-26T03:15:20.004Z,83.73
2022-09-26T03:17:52.423Z,83.52
2022-09-26T03:20:21.828Z,83.50
2022-09-26T03:22:51.530Z,83.41
2022-09-26T03:25:24.317Z,83.30
2022-09-26T03:28:05.809Z,83.32
2022-09-26T03:30:34.722Z,83.18
2022-09-26T03:33:21.548Z,83.28
2022-09-26T03:35:49.982Z,83.27
2022-09-26T03:38:17.948Z,83.38
2022-09-26T03:40:50.854Z,83.44
2022-09-26T03:43:44.965Z,83.53
2022-09-26T03:46:13.610Z,83.53
2022-09-26T03:48:42.397Z,83.69
2022-09-26T03:51:14.410Z,83.60
2022-09-26T03:53:44.569Z,83.66
2022-09-26T03:56:19.157Z,83.86
2022-09-26T03:58:49.239Z,84.07
2022-09-26T04:01:20.508Z,83.93
2022-09-26T04:03:51.244Z,83.68
2022-09-26T04:06:21.135Z,83.73
2022-09-26T04:08:53.268Z,83.63
2022-09-26T04:11:24.715Z,83.54
2022-09-26T04:13:54.213Z,83.40
2022-09-26T04:16:25.723Z,83.08
2022-09-26T04:18:58.557Z,83.29
2022-09-26T04:21:27.687Z,83.08
2022-09-26T04:23:57.243Z,82.81
2022-09-26T04:26:25.244Z,82.84
2022-09-26T04:28:57.287Z,82.59
2022-09-26T04:31:35.832Z,82.59
2022-09-26T04:34:11.454Z,82.30
2022-09-26T04:36:39.471Z,82.19
2022-09-26T04:39:07.599Z,82.36
2022-09-26T04:41:36.377Z,82.16
2022-09-26T04:44:04.349Z,81.96
2022-09-26T04:46:32.760Z,82.02
2022-09-26T04:49:02.187Z,81.78
2022-09-26T04:51:31.823Z,81.57
2022-09-26T04:54:00.282Z,81.59
2022-09-26T04:56:30.412Z,81.54
2022-09-26T04:58:59.574Z,81.26
2022-09-26T05:01:33.506Z,81.10
2022-09-26T05:04:27.884Z,80.88
2022-09-26T05:06:57.908Z,80.84
2022-09-26T05:09:31.745Z,80.68
2022-09-26T05:12:07.026Z,80.47
2022-09-26T05:14:38.032Z,80.26
2022-09-26T05:17:06.197Z,80.00
2022-09-26T05:19:34.782Z,79.96
2022-09-26T05:22:32.346Z,79.67
2022-09-26T05:25:18.975Z,79.30
2022-09-26T05:27:48.612Z,79.19
2022-09-26T05:30:16.832Z,79.00
2022-09-26T05:32:48.497Z,78.95
2022-09-26T05:35:17.224Z,78.89
2022-09-26T05:37:45.444Z,78.82
2022-09-26T05:40:32.624Z,78.58
2022-09-26T05:43:02.648Z,78.45
2022-09-26T05:45:31.382Z,78.03
2022-09-26T05:48:00.664Z,77.85
2022-09-26T05:50:28.780Z,78.01
2022-09-26T05:53:03.587Z,77.29
2022-09-26T05:55:31.784Z,77.38
2022-09-26T05:57:59.709Z,76.98
2022-09-26T06:00:38.535Z,76.80
2022-09-26T06:03:06.782Z,76.15
2022-09-26T06:05:44.910Z,76.35
2022-09-26T06:08:17.583Z,76.49
2022-09-26T06:11:18.119Z,76.16
2022-09-26T06:13:47.110Z,75.80
2022-09-26T06:16:21.206Z,76.08
2022-09-26T06:18:51.382Z,76.19
2022-09-26T06:21:21.224Z,75.90
2022-09-26T06:23:52.805Z,75.41
2022-09-26T06:26:24.201Z,74.99
2022-09-26T06:29:00.651Z,75.26
2022-09-26T06:31:31.021Z,75.59
2022-09-26T06:34:15.605Z,75.03
2022-09-26T06:36:57.094Z,75.04
2022-09-26T06:39:35.871Z,75.10
2022-09-26T06:42:08.281Z,75.00
2022-09-26T06:44:56.627Z,75.13
2022-09-26T06:47:25.114Z,74.97
2022-09-26T06:50:11.749Z,74.35
2022-09-26T06:52:44.304Z,74.26
2022-09-26T06:55:14.750Z,73.81
2022-09-26T06:57:44.728Z,73.78
2022-09-26T07:00:16.006Z,73.89
2022-09-26T07:03:10.563Z,73.76
2022-09-26T07:05:51.855Z,73.16
2022-09-26T07:08:28.732Z,73.58
2022-09-26T07:11:28.164Z,73.40
2022-09-26T07:13:54.163Z,73.29
2022-09-26T07:16:22.584Z,73.64
2022-09-26T07:19:11.023Z,73.71
2022-09-26T07:21:56.466Z,73.69
2022-09-26T07:24:28.963Z,73.65
2022-09-26T07:26:56.859Z,73.62
2022-09-26T07:29:25.787Z,73.58
2022-09-26T07:31:54.252Z,72.82
2022-09-26T07:34:43.019Z,73.09
2022-09-26T07:37:13.055Z,72.87
2022-09-26T07:39:41.056Z,71.82
2022-09-26T07:42:10.615Z,71.82
2022-09-26T07:45:17.442Z,71.48
2022-09-26T07:47:52.855Z,70.62
2022-09-26T07:50:39.498Z,70.18
2022-09-26T07:53:23.662Z,71.04
2022-09-26T07:56:11.315Z,70.81
2022-09-26T07:59:05.483Z,70.85
2022-09-26T08:01:59.804Z,70.97
2022-09-26T08:04:40.551Z,70.94
2022-09-26T08:07:09.970Z,70.63
2022-09-26T08:09:43.345Z,69.98
2022-09-26T08:12:38.554Z,70.34
2022-09-26T08:15:26.807Z,70.67
2022-09-26T08:18:05.400Z,70.73
2022-09-26T08:20:34.045Z,70.70
2022-09-26T08:23:02.070Z,70.59
2022-09-26T08:25:31.066Z,70.92
2022-09-26T08:28:12.441Z,70.89
2022-09-26T08:30:41.347Z,71.08
2022-09-26T08:33:12.586Z,71.38
2022-09-26T08:35:40.850Z,71.61
2022-09-26T08:38:41.101Z,71.81
2022-09-26T08:41:32.744Z,71.97
2022-09-26T08:44:39.557Z,72.22
2022-09-26T08:47:49.198Z,71.96
2022-09-26T08:50:50.062Z,71.62
2022-09-26T08:53:26.941Z,71.44
2022-09-26T08:55:58.174Z,71.43
2022-09-26T08:58:35.046Z,71.51
2022-09-26T09:01:13.161Z,71.57
2022-09-26T09:04:43.622Z,71.42
2022-09-26T09:07:24.571Z,71.09
2022-09-26T09:09:57.425Z,70.74
2022-09-26T09:13:10.788Z,71.02
2022-09-26T09:16:25.506Z,71.21
2022-09-26T09:19:27.229Z,71.39
2022-09-26T09:22:27.666Z,70.99
2022-09-26T09:25:23.390Z,70.59
2022-09-26T09:28:01.230Z,70.19
2022-09-26T09:30:52.230Z,70.07
2022-09-26T09:33:52.592Z,69.38
2022-09-26T09:36:46.674Z,69.27
2022-09-26T09:39:26.749Z,68.99
2022-09-26T09:42:21.114Z,69.15
2022-09-26T09:44:58.453Z,68.63
2022-09-26T09:47:29.394Z,68.51
2022-09-26T09:49:59.972Z,68.16
2022-09-26T09:52:57.729Z,68.36
2022-09-26T09:55:31.855Z,68.09
2022-09-26T09:58:00.285Z,68.01
2022-09-26T10:00:29.744Z,68.15
2022-09-26T10:03:24.139Z,67.91
2022-09-26T10:06:01.479Z,67.43
2022-09-26T10:08:41.746Z,67.14
2022-09-26T10:11:24.327Z,67.40
2022-09-26T10:14:06.312Z,67.16
2022-09-26T10:17:12.781Z,66.72
2022-09-26T10:19:56.730Z,65.89
2022-09-26T10:22:37.637Z,66.15
2022-09-26T10:25:16.283Z,66.35
2022-09-26T10:27:53.249Z,66.69
2022-09-26T10:30:26.188Z,66.26
2022-09-26T10:32:59.120Z,66.42
2022-09-26T10:35:45.515Z,66.02
2022-09-26T10:38:23.926Z,66.00
2022-09-26T10:41:03.527Z,66.41
2022-09-26T10:43:38.137Z,66.31
2022-09-26T10:46:19.343Z,66.15
2022-09-26T10:48:52.697Z,65.95
2022-09-26T10:51:45.109Z,65.89
2022-09-26T10:54:25.284Z,66.01
2022-09-26T10:56:59.289Z,65.79
2022-09-26T10:59:36.334Z,65.95
2022-09-26T11:02:05.958Z,66.07
2022-09-26T11:04:54.186Z,65.84
2022-09-26T11:07:46.548Z,66.17
2022-09-26T11:10:32.621Z,65.60
2022-09-26T11:13:23.366Z,65.54
2022-09-26T11:16:13.119Z,65.64
2022-09-26T11:18:45.252Z,65.55
2022-09-26T11:21:35.471Z,65.40
2022-09-26T11:24:26.481Z,66.06
2022-09-26T11:27:28.409Z,65.63
2022-09-26T11:30:09.358Z,65.91
2022-09-26T11:32:44.041Z,65.74
2022-09-26T11:36:22.711Z,65.83
2022-09-26T11:38:58.108Z,64.65
2022-09-26T11:42:04.546Z,64.93
2022-09-26T11:44:32.442Z,64.50
2022-09-26T11:47:30.436Z,64.65
2022-09-26T11:50:20.749Z,64.65
2022-09-26T11:53:25.438Z,64.36
2022-09-26T11:56:16.154Z,64.64
2022-09-26T11:58:49.694Z,64.48
2022-09-26T12:01:27.441Z,64.61
2022-09-26T12:04:06.560Z,64.33
2022-09-26T12:06:41.602Z,64.47
2022-09-26T12:09:33.879Z,64.80
2022-09-26T12:12:39.687Z,64.75
2022-09-26T12:15:55.155Z,64.47
2022-09-26T12:18:47.439Z,65.03
2022-09-26T12:21:30.509Z,65.51
2022-09-26T12:24:21.534Z,65.26
2022-09-26T12:27:33.332Z,64.96
2022-09-26T12:30:17.476Z,64.22
2022-09-26T12:32:51.592Z,64.21
2022-09-26T12:35:58.439Z,64.16
2022-09-26T12:38:39.527Z,64.38
2022-09-26T12:41:15.480Z,63.64
2022-09-26T12:44:22.317Z,63.81
2022-09-26T12:47:11.753Z,63.60
2022-09-26T12:49:42.672Z,64.34
2022-09-26T12:52:32.327Z,64.60
2022-09-26T12:55:19.077Z,64.26
2022-09-26T12:58:00.838Z,63.88
2022-09-26T13:00:39.892Z,64.13
2022-09-26T13:03:26.625Z,63.73
2022-09-26T13:06:27.541Z,63.91
2022-09-26T13:09:24.157Z,64.40
2022-09-26T13:11:58.089Z,64.75
2022-09-26T13:14:44.283Z,64.41
2022-09-26T13:17:45.952Z,64.23
2022-09-26T13:20:24.313Z,64.42
2022-09-26T13:22:58.727Z,64.42
2022-09-26T13:25:35.919Z,64.46
2022-09-26T13:28:25.916Z,64.26
2022-09-26T13:31:03.523Z,64.50
2022-09-26T13:33:44.500Z,64.38
2022-09-26T13:36:14.074Z,64.43
2022-09-26T13:38:53.052Z,64.93
2022-09-26T13:41:48.672Z,63.83
2022-09-26T13:44:51.585Z,63.47
2022-09-26T13:47:49.430Z,63.46
2022-09-26T13:50:41.296Z,63.20
2022-09-26T13:53:29.001Z,63.03
2022-09-26T13:56:34.144Z,62.98
2022-09-26T13:59:27.147Z,62.65
2022-09-26T14:02:17.085Z,62.65
2022-09-26T14:04:53.453Z,62.39
2022-09-26T14:08:02.859Z,62.11
2022-09-26T14:10:30.829Z,62.08
2022-09-26T14:13:10.565Z,62.25
2022-09-26T14:15:47.829Z,62.68
2022-09-26T14:18:50.644Z,62.88
2022-09-26T14:21:57.787Z,63.25
2022-09-26T14:24:37.904Z,63.10
2022-09-26T14:27:24.486Z,62.82
2022-09-26T14:29:54.108Z,62.80
2022-09-26T14:32:26.459Z,62.73
2022-09-26T14:34:54.831Z,62.65
2022-09-26T14:37:25.567Z,62.54
2022-09-26T14:39:59.695Z,62.56
2022-09-26T14:42:32.828Z,62.37
2022-09-26T14:45:20.708Z,62.63
2022-09-26T14:48:12.651Z,63.17
2022-09-26T14:50:49.691Z,62.98
2022-09-26T14:53:27.668Z,63.40
2022-09-26T14:56:03.668Z,63.24
2022-09-26T14:58:36.590Z,63.51
2022-09-26T15:01:28.770Z,63.47
2022-09-26T15:04:10.644Z,63.99
2022-09-26T15:06:52.346Z,64.18
2022-09-26T15:09:25.463Z,64.29
2022-09-26T15:12:08.776Z,64.27
2022-09-26T15:14:45.565Z,64.57
2022-09-26T15:17:38.622Z,64.70
2022-09-26T15:20:14.067Z,64.95
2022-09-26T15:22:43.148Z,64.80
2022-09-26T15:25:19.431Z,64.39
2022-09-26T15:27:54.110Z,64.41
2022-09-26T15:30:24.589Z,64.81
2022-09-26T15:33:03.301Z,65.36
2022-09-26T15:35:32.475Z,65.93
2022-09-26T15:38:03.097Z,66.03
2022-09-26T15:40:32.165Z,66.37
2022-09-26T15:43:09.750Z,66.46
2022-09-26T15:45:46.608Z,66.85
2022-09-26T15:48:19.589Z,67.00
2022-09-26T15:50:52.248Z,66.91
2022-09-26T15:53:33.323Z,67.07
2022-09-26T15:56:08.459Z,66.98
2022-09-26T15:58:49.759Z,67.28
2022-09-26T16:01:20.849Z,66.84
2022-09-26T16:04:00.371Z,66.86
2022-09-26T16:06:35.393Z,66.79
2022-09-26T16:09:45.261Z,66.77
2022-09-26T16:12:16.447Z,66.69
2022-09-26T16:15:03.782Z,66.64
2022-09-26T16:17:49.427Z,66.53
2022-09-26T16:20:17.425Z,66.76
2022-09-26T16:22:51.168Z,67.20
2022-09-26T16:25:24.288Z,67.37
2022-09-26T16:28:00.989Z,67.66
2022-09-26T16:30:31.666Z,67.77
2022-09-26T16:33:02.259Z,68.11
2022-09-26T16:35:33.638Z,68.40
2022-09-26T16:38:05.375Z,68.60
2022-09-26T16:40:35.613Z,68.90
2022-09-26T16:43:19.077Z,69.38
2022-09-26T16:45:49.792Z,69.75
2022-09-26T16:48:56.513Z,70.09
2022-09-26T16:51:39.837Z,70.83
2022-09-26T16:54:07.996Z,71.07
2022-09-26T16:56:40.485Z,71.33
2022-09-26T16:59:21.465Z,71.75
2022-09-26T17:01:56.588Z,72.34
2022-09-26T17:04:31.055Z,72.53
2022-09-26T17:07:00.544Z,72.86
2022-09-26T17:09:31.488Z,73.01
2022-09-26T17:12:18.193Z,73.33
2022-09-26T17:14:49.441Z,73.97
2022-09-26T17:17:25.496Z,74.53
2022-09-26T17:19:59.625Z,74.91
2022-09-26T17:22:28.376Z,74.85
2022-09-26T17:24:57.033Z,75.21
2022-09-26T17:27:30.696Z,75.50
2022-09-26T17:30:02.446Z,75.92
2022-09-26T17:32:44.302Z,76.07
2022-09-26T17:35:17.290Z,76.36
2022-09-26T17:37:45.260Z,76.46
2022-09-26T17:40:19.652Z,76.58
2022-09-26T17:42:47.783Z,76.77
2022-09-26T17:45:15.888Z,76.87
2022-09-26T17:47:43.887Z,76.92
2022-09-26T17:50:21.536Z,77.10
2022-09-26T17:52:49.700Z,77.43
2022-09-26T17:55:18.966Z,77.31
2022-09-26T17:57:47.143Z,77.37
2022-09-26T18:00:18.196Z,77.41
2022-09-26T18:02:55.634Z,77.30
2022-09-26T18:05:26.806Z,77.29
2022-09-26T18:08:26.308Z,77.47
2022-09-26T18:11:01.540Z,77.70
2022-09-26T18:13:36.373Z,77.85
2022-09-26T18:16:05.772Z,77.92
2022-09-26T18:18:34.259Z,78.07
2022-09-26T18:21:04.222Z,78.19
2022-09-26T18:23:50.266Z,78.99
2022-09-26T18:26:42.333Z,79.56
2022-09-26T18:29:15.491Z,80.29
2022-09-26T18:31:46.433Z,80.76
2022-09-26T18:34:18.756Z,81.54
2022-09-26T18:36:49.006Z,82.13
2022-09-26T18:39:17.079Z,82.12
2022-09-26T18:41:46.084Z,82.53
2022-09-26T18:44:17.847Z,83.08
2022-09-26T18:46:47.325Z,83.84
2022-09-26T18:49:16.085Z,83.76
2022-09-26T18:51:45.922Z,84.44
2022-09-26T18:54:17.196Z,85.09
2022-09-26T18:57:04.049Z,85.05
2022-09-26T18:59:32.303Z,85.75
2022-09-26T19:02:02.005Z,86.04
2022-09-26T19:04:33.546Z,86.27
2022-09-26T19:07:06.151Z,86.50
2022-09-26T19:09:36.343Z,86.99
2022-09-26T19:12:04.955Z,87.07
2022-09-26T19:14:33.235Z,87.26
2022-09-26T19:17:01.243Z,87.38
2022-09-26T19:19:30.455Z,87.68
2022-09-26T19:22:01.192Z,87.90
2022-09-26T19:24:53.016Z,87.78
2022-09-26T19:27:22.934Z,88.21
2022-09-26T19:30:01.033Z,87.98
2022-09-26T19:32:39.652Z,88.01
2022-09-26T19:35:19.911Z,87.68
2022-09-26T19:37:48.064Z,87.77
2022-09-26T19:40:18.593Z,88.13
2022-09-26T19:42:47.397Z,88.46
2022-09-26T19:45:16.307Z,88.45
2022-09-26T19:47:50.638Z,88.30
2022-09-26T19:50:21.182Z,88.07
2022-09-26T19:52:51.785Z,87.89
2022-09-26T19:55:26.641Z,87.85
2022-09-26T19:58:18.147Z,87.91
2022-09-26T20:00:55.113Z,88.15
2022-09-26T20:03:29.277Z,87.85
2022-09-26T20:05:57.605Z,87.63
2022-09-26T20:08:26.781Z,87.59
2022-09-26T20:10:58.174Z,87.69
2022-09-26T20:13:26.049Z,88.06
2022-09-26T20:15:54.777Z,87.85
2022-09-26T20:18:24.214Z,88.01
2022-09-26T20:20:54.695Z,88.02
2022-09-26T20:23:26.462Z,88.21
2022-09-26T20:25:55.589Z,88.05
2022-09-26T20:28:24.038Z,88.22
2022-09-26T20:30:52.234Z,88.18
2022-09-26T20:33:22.429Z,88.08
2022-09-26T20:36:03.001Z,88.03
2022-09-26T20:38:31.577Z,88.30
2022-09-26T20:41:09.303Z,88.56
2022-09-26T20:43:45.023Z,88.29
2022-09-26T20:46:13.547Z,88.24
2022-09-26T20:48:44.951Z,88.63
2022-09-26T20:51:20.570Z,89.20
2022-09-26T20:53:48.571Z,89.25
2022-09-26T20:56:20.733Z,89.62
2022-09-26T20:58:48.887Z,90.39
2022-09-26T21:01:19.795Z,90.66
2022-09-26T21:03:50.582Z,90.53
2022-09-26T21:06:23.825Z,90.23
2022-09-26T21:08:51.844Z,91.01
2022-09-26T21:11:21.346Z,90.83
2022-09-26T21:13:49.701Z,91.40
2022-09-26T21:16:22.026Z,91.79
2022-09-26T21:18:52.528Z,91.46
2022-09-26T21:21:26.924Z,91.10
2022-09-26T21:24:01.297Z,90.78
2022-09-26T21:26:31.382Z,90.33
2022-09-26T21:28:59.552Z,90.36
2022-09-26T21:31:33.631Z,90.55
2022-09-26T21:34:03.437Z,90.83
2022-09-26T21:36:35.741Z,90.79
2022-09-26T21:39:05.247Z,90.73
2022-09-26T21:41:33.623Z,90.44
2022-09-26T21:44:11.629Z,90.30
2022-09-26T21:46:39.684Z,90.69
2022-09-26T21:49:07.670Z,90.97
2022-09-26T21:51:36.454Z,91.39
2022-09-26T21:54:11.715Z,91.40
2022-09-26T21:56:50.311Z,91.44
2022-09-26T21:59:21.618Z,91.62
2022-09-26T22:01:49.767Z,91.81
2022-09-26T22:04:19.229Z,91.93
2022-09-26T22:06:47.197Z,91.70
2022-09-26T22:09:15.303Z,91.43
2022-09-26T22:11:43.305Z,91.61
2022-09-26T22:14:11.274Z,92.11
2022-09-26T22:16:39.317Z,92.08
2022-09-26T22:19:07.357Z,91.85
2022-09-26T22:21:35.314Z,91.60
2022-09-26T22:24:03.560Z,91.84
2022-09-26T22:26:31.574Z,92.01
2022-09-26T22:28:59.489Z,91.96
2022-09-26T22:31:27.644Z,91.74
2022-09-26T22:33:59.673Z,91.97
2022-09-26T22:36:27.839Z,92.06
2022-09-26T22:38:55.902Z,92.32
2022-09-26T22:41:23.871Z,92.16
2022-09-26T22:43:53.068Z,92.20
2022-09-26T22:46:21.743Z,92.10
2022-09-26T22:48:49.727Z,92.28
2022-09-26T22:51:18.115Z,92.35
2022-09-26T22:53:45.998Z,92.42
2022-09-26T22:56:15.263Z,92.54
2022-09-26T22:58:47.337Z,92.52
2022-09-26T23:01:27.963Z,92.47
2022-09-26T23:03:58.594Z,92.35
2022-09-26T23:06:27.209Z,92.07
2022-09-26T23:08:55.415Z,92.23
2022-09-26T23:11:24.889Z,92.35
2022-09-26T23:13:53.160Z,92.22
2022-09-26T23:16:24.263Z,92.10
2022-09-26T23:18:52.579Z,92.72
2022-09-26T23:21:26.592Z,92.83
2022-09-26T23:23:56.409Z,92.83
2022-09-26T23:26:28.158Z,93.06
2022-09-26T23:28:57.677Z,92.99
2022-09-26T23:31:27.844Z,92.90
2022-09-26T23:33:56.470Z,92.89
2022-09-26T23:36:24.843Z,92.65
2022-09-26T23:38:53.693Z,92.47
2022-09-26T23:41:21.659Z,92.45
2022-09-26T23:43:50.154Z,92.48
2022-09-26T23:46:18.137Z,92.30
2022-09-26T23:48:46.134Z,92.43
2022-09-26T23:51:14.083Z,92.16
2022-09-26T23:53:42.012Z,92.05
2022-09-26T23:56:12.023Z,92.11
2022-09-26T23:58:40.759Z,91.99
